• Join FlightAware (Why Join?)
  • Login
  • US Flag 
12:23PM EDT


 

Airport Tracker/Info


-or-


 

Live Flight TrackerFlight Track Log ✈ N960DL ✈ 02-May-2013 ✈ KATL - KDCA

Flight Track Log - Related Links

Times and Time Zones

All times are in EDT time to prevent confusion due to time zone crossing. See the N960DL flight status page for this flight to view local times or setup timezone preferences in your user account.

Time Position Orientation Groundspeed Altitude Reporting Facility
EDT Latitude Longitude Course Direction KTS MPH feet Rate Location/Type
03:39PM 33.6333 -84.4000 53° Northeast 141 162 2,400  Level Atlanta TRACON
03:40PM 33.6333 -84.3333 90° East 220 253 4,000 2,340 Climbing Atlanta TRACON
03:41PM 33.6333 -84.2500 90° East 249 287 7,100 2,220 Climbing Atlanta TRACON
03:42PM 33.7881 -83.9146 54° Northeast  Level FlightAware Approximate
03:43PM 33.8541 -83.8043 54° Northeast  Level FlightAware Approximate
03:43PM 33.6647 -84.0614 79° East 288 331 11,600  Level Atlanta Center
03:44PM 33.9268 -83.7004 53° Northeast  Level FlightAware Approximate
03:44PM 33.7358 -83.9714 46° Northeast 326 375 13,600  Level Atlanta Center
03:45PM 33.8128 -83.8664 49° Northeast 358 412 16,300 2,580 Climbing Atlanta Center
03:46PM 33.8900 -83.7686 46° Northeast 390 449 18,800 2,040 Climbing Atlanta Center
03:47PM 33.9647 -83.6631 50° Northeast 403 464 20,400 1,500 Climbing Atlanta Center
03:48PM 34.0417 -83.5425 52° Northeast 427 491 21,900 1,620 Climbing Atlanta Center
03:49PM 34.1183 -83.4189 53° Northeast 448 516 23,700 1,800 Climbing Atlanta Center
03:50PM 34.1969 -83.2928 53° Northeast 465 535 25,600 1,980 Climbing Atlanta Center
03:51PM 34.2775 -83.1664 52° Northeast 471 542 27,700 1,800 Climbing Atlanta Center
03:52PM 34.3558 -83.0397 53° Northeast 471 542 29,200 1,500 Climbing Atlanta Center
03:53PM 34.4361 -82.9156 52° Northeast 471 542 30,700 900 Climbing Atlanta Center
03:54PM 34.5119 -82.7858 55° Northeast 463 533 31,000 120 Climbing Atlanta Center
03:55PM 34.5881 -82.6611 53° Northeast 457 526 31,000  Level Atlanta Center
03:56PM 34.6658 -82.5361 53° Northeast 457 526 31,000  Level Atlanta Center
03:57PM 34.7414 -82.4083 54° Northeast 457 526 31,000 240 Level Atlanta Center
03:58PM 34.8189 -82.2828 53° Northeast 457 526 31,500 780 Climbing Atlanta Center
03:59PM 34.8964 -82.1572 53° Northeast 457 526 32,600 720 Climbing Atlanta Center
04:00PM 34.9736 -82.0336 53° Northeast 457 526 33,000 180 Climbing Atlanta Center
04:01PM 35.0486 -81.9025 55° Northeast 457 526 33,000  Level Atlanta Center
04:02PM 35.1214 -81.7686 56° Northeast 465 535 33,000  Level Atlanta Center
04:03PM 35.1817 -81.6500 58° Northeast 459 528 33,000  Level Atlanta Center
04:04PM 35.2500 -81.5158 58° Northeast 459 528 33,000  Level Atlanta Center
04:05PM 35.3203 -81.3814 57° Northeast 464 534 33,000  Level Atlanta Center
04:06PM 35.3903 -81.2467 57° Northeast 459 528 33,000  Level Atlanta Center
04:07PM 35.4600 -81.1092 58° Northeast 468 539 33,000  Level Atlanta Center
04:08PM 35.5319 -80.9764 56° Northeast 468 539 33,000  Level Atlanta Center
04:09PM 35.6036 -80.8408 57° Northeast 468 539 33,000  Level Atlanta Center
04:10PM 35.6750 -80.7053 57° Northeast 474 545 33,000  Level Atlanta Center
04:11PM 35.7444 -80.5692 58° Northeast 467 537 33,000  Level Atlanta Center
04:12PM 35.8133 -80.4331 58° Northeast 473 544 33,000  Level Atlanta Center
04:13PM 35.8803 -80.3022 58° Northeast 466 536 33,000  Level Atlanta Center
04:16PM 36.0328 -80.0072 57° Northeast 440 506 33,000  Level Washington Center
04:16PM 36.1064 -79.8753 55° Northeast 440 506 33,000  Level Washington Center
04:17PM 36.1800 -79.7428 55° Northeast 451 519 33,000  Level Washington Center
04:19PM 36.2447 -79.6225 56° Northeast 457 526 33,000  Level Washington Center
04:19PM 36.3244 -79.4822 55° Northeast 451 519 33,000  Level Washington Center
04:20PM 36.3953 -79.3542 55° Northeast 451 519 33,000  Level Washington Center
04:21PM 36.4661 -79.2258 56° Northeast 451 519 33,000 -1,140 Level Washington Center
04:23PM 36.5408 -79.1003 53° Northeast 451 519 30,700 -2,460 Descending Washington Center
04:23PM 36.6111 -78.9739 55° Northeast 444 511 28,200 -2,220 Descending Washington Center
04:24PM 36.6728 -78.8575 57° Northeast 444 511 26,300 -1,620 Descending Washington Center
04:25PM 36.7386 -78.7383 55° Northeast 428 493 25,000 -660 Descending Washington Center
04:27PM 36.8108 -78.6092 55° Northeast 422 486 25,000  Level Washington Center
04:28PM 36.8783 -78.4922 54° Northeast 415 478 25,000  Level Washington Center
04:28PM 36.9417 -78.3778 55° Northeast 415 478 25,000  Level Washington Center
04:29PM 37.0111 -78.2553 55° Northeast 415 478 25,000  Level Washington Center
04:31PM 37.0742 -78.1353 57° Northeast 415 478 25,000  Level Washington Center
04:32PM 37.1369 -78.0200 56° Northeast 415 478 25,000  Level Washington Center
04:32PM 37.2000 -77.9019 56° Northeast 410 472 25,000  Level Washington Center
04:33PM 37.2628 -77.7814 57° Northeast 410 472 25,000  Level Washington Center
04:35PM 37.3272 -77.6631 56° Northeast 410 472 25,000 -240 Level Washington Center
04:36PM 37.3897 -77.5444 56° Northeast 410 472 24,600 -1,200 Descending Washington Center
04:36PM 37.4522 -77.4283 56° Northeast 405 466 22,700 -2,280 Descending Washington Center
04:38PM 37.5206 -77.3253 50° Northeast 400 460 20,100 -6,420 Descending Washington Center
04:38PM 37.6294 -77.2936 13° North 377 434 10,000 -2,400 Descending Washington Center
04:39PM 37.7361 -77.2722 North 371 427 15,500  Climbing Washington Center
04:41PM 37.8488 -77.2378 North  Level FlightAware Approximate
04:45PM 38.1731 -77.1844 North 284 327 10,000  Level Washington Center
04:46PM 38.2569 -77.1597 North 278 320 10,000 -300 Level Washington Center
04:47PM 38.3907 -77.1377 15° North  Level Estimated
04:47PM 38.3217 -77.1478 North 278 320 9,400  Level Washington Center
04:47PM 38.3992 -77.1256 13° North 278 320 7,500 -1,800 Descending Washington Center
04:48PM 38.6178 -77.0744 21° North  Level FlightAware Approximate
04:48PM 38.4744 -77.1058 12° North 278 320 6,000  Level Washington Center
04:49PM 38.7284 -77.0596 11° North  Level FlightAware Approximate
04:50PM 38.8390 -77.0355 North  Level FlightAware Approximate
04:54PM 38.8500 -77.0333 North  Level FlightAware Approximate